createdAt,value
2022-12-26T00:01:22.679Z,67.72
2022-12-26T00:04:51.101Z,67.43
2022-12-26T00:07:16.776Z,70.20
2022-12-26T00:10:02.278Z,67.15
2022-12-26T00:12:47.445Z,69.80
2022-12-26T00:15:33.036Z,73.40
2022-12-26T00:18:18.552Z,74.57
2022-12-26T00:21:04.713Z,71.97
2022-12-26T00:23:50.605Z,70.95
2022-12-26T00:26:36.227Z,72.28
2022-12-26T00:29:22.973Z,70.18
2022-12-26T00:32:11.615Z,70.28
2022-12-26T00:34:57.286Z,75.28
2022-12-26T00:37:48.950Z,80.50
2022-12-26T00:40:43.050Z,86.20
2022-12-26T00:43:31.055Z,84.40
2022-12-26T00:46:17.622Z,87.70
2022-12-26T00:49:04.402Z,82.90
2022-12-26T00:51:58.995Z,88.05
2022-12-26T00:54:44.504Z,83.70
2022-12-26T00:57:30.035Z,85.55
2022-12-26T01:00:17.294Z,80.57
2022-12-26T01:03:10.421Z,78.97
2022-12-26T01:05:56.021Z,72.05
2022-12-26T01:08:41.792Z,70.97
2022-12-26T01:11:53.984Z,67.43
2022-12-26T01:14:39.816Z,67.13
2022-12-26T01:17:25.801Z,64.63
2022-12-26T01:20:11.813Z,65.30
2022-12-26T01:22:57.245Z,61.58
2022-12-26T01:26:15.607Z,62.25
2022-12-26T01:28:50.933Z,57.50
2022-12-26T01:31:36.449Z,53.72
2022-12-26T01:34:22.183Z,55.45
2022-12-26T01:37:07.744Z,54.03
2022-12-26T01:39:53.441Z,49.15
2022-12-26T01:42:42.840Z,52.00
2022-12-26T01:45:31.531Z,46.63
2022-12-26T01:48:33.460Z,46.38
2022-12-26T01:51:24.080Z,42.67
2022-12-26T01:54:37.382Z,41.63
2022-12-26T01:57:22.196Z,44.42
2022-12-26T02:00:14.693Z,34.22
2022-12-26T02:03:19.853Z,42.97
2022-12-26T02:06:05.734Z,39.05
2022-12-26T02:08:51.701Z,40.47
2022-12-26T02:11:42.834Z,35.85
2022-12-26T02:14:28.492Z,35.03
2022-12-26T02:17:14.406Z,35.50
2022-12-26T02:20:20.656Z,34.08
2022-12-26T02:23:44.285Z,37.20
2022-12-26T02:26:47.480Z,36.92
2022-12-26T02:29:44.656Z,33.75
2022-12-26T02:33:05.706Z,38.92
2022-12-26T02:36:15.988Z,36.92
2022-12-26T02:39:44.933Z,36.35
2022-12-26T02:42:48.607Z,35.80
2022-12-26T02:46:23.336Z,32.33
2022-12-26T02:49:30.133Z,34.47
2022-12-26T02:52:40.149Z,40.75
2022-12-26T02:55:47.609Z,41.78
2022-12-26T02:59:05.731Z,37.20
2022-12-26T03:02:13.031Z,43.95
2022-12-26T03:05:18.415Z,43.40
2022-12-26T03:08:28.119Z,45.33
2022-12-26T03:11:32.744Z,45.45
2022-12-26T03:14:22.984Z,44.40
2022-12-26T03:17:22.000Z,49.30
2022-12-26T03:20:18.249Z,49.50
2022-12-26T03:23:14.785Z,49.53
2022-12-26T03:26:24.988Z,46.33
2022-12-26T03:29:42.095Z,45.03
2022-12-26T03:32:27.666Z,47.75
2022-12-26T03:35:15.341Z,47.45
2022-12-26T03:38:08.153Z,47.22
2022-12-26T03:41:22.168Z,41.40
2022-12-26T03:44:32.296Z,38.00
2022-12-26T03:47:45.033Z,41.15
2022-12-26T03:51:06.246Z,35.72
2022-12-26T03:54:17.475Z,36.60
2022-12-26T03:57:41.940Z,36.90
2022-12-26T04:00:49.405Z,33.78
2022-12-26T04:03:55.054Z,40.83
2022-12-26T04:07:06.763Z,37.20
2022-12-26T04:10:22.403Z,37.95
2022-12-26T04:13:40.836Z,28.85
2022-12-26T04:16:47.936Z,31.05
2022-12-26T04:20:03.282Z,24.30
2022-12-26T04:23:28.783Z,21.13
2022-12-26T04:26:41.214Z,20.03
2022-12-26T04:29:45.091Z,18.85
2022-12-26T04:32:58.350Z,18.48
2022-12-26T04:36:12.834Z,20.08
2022-12-26T04:39:21.402Z,22.58
2022-12-26T04:42:27.062Z,20.05
2022-12-26T04:45:14.195Z,16.23
2022-12-26T04:48:18.013Z,18.48
2022-12-26T04:51:06.284Z,14.80
2022-12-26T04:53:54.586Z,14.48
2022-12-26T04:56:40.437Z,17.33
2022-12-26T04:59:26.305Z,14.25
2022-12-26T05:02:30.430Z,17.58
2022-12-26T05:05:34.478Z,15.55
2022-12-26T05:08:54.167Z,15.10
2022-12-26T05:11:39.465Z,13.35
2022-12-26T05:14:25.092Z,12.98
2022-12-26T05:17:32.150Z,11.48
2022-12-26T05:20:36.166Z,11.40
2022-12-26T05:23:43.968Z,10.32
2022-12-26T05:26:54.074Z,9.23
2022-12-26T05:29:39.293Z,11.65
2022-12-26T05:32:43.701Z,11.18
2022-12-26T05:35:29.062Z,8.38
2022-12-26T05:38:14.895Z,9.95
2022-12-26T05:41:00.423Z,8.90
2022-12-26T05:43:45.880Z,9.35
2022-12-26T05:46:33.042Z,7.68
2022-12-26T05:49:18.408Z,8.60
2022-12-26T05:52:03.821Z,10.55
2022-12-26T05:54:49.767Z,14.38
2022-12-26T05:57:35.064Z,8.88
2022-12-26T06:00:22.927Z,11.68
2022-12-26T06:03:11.318Z,13.10
2022-12-26T06:05:57.712Z,16.45
2022-12-26T06:08:43.705Z,14.65
2022-12-26T06:11:32.303Z,14.10
2022-12-26T06:14:18.200Z,15.43
2022-12-26T06:20:12.088Z,15.85
2022-12-26T06:23:00.242Z,10.93
2022-12-26T06:25:55.359Z,12.25
2022-12-26T06:28:42.707Z,13.80
2022-12-26T06:31:28.012Z,9.88
2022-12-26T06:34:13.823Z,13.30
2022-12-26T06:36:59.941Z,8.40
2022-12-26T06:39:46.762Z,12.23
2022-12-26T06:42:32.274Z,13.07
2022-12-26T06:45:18.023Z,10.20
2022-12-26T06:48:03.722Z,10.13
2022-12-26T06:50:49.029Z,10.05
2022-12-26T06:53:34.764Z,10.73
2022-12-26T06:56:23.473Z,8.82
2022-12-26T06:59:12.058Z,9.90
2022-12-26T07:01:57.860Z,8.50
2022-12-26T07:04:43.721Z,13.15
2022-12-26T07:07:29.010Z,12.63
2022-12-26T07:10:14.428Z,9.55
2022-12-26T07:12:59.934Z,6.57
2022-12-26T07:15:45.599Z,10.77
2022-12-26T07:18:31.113Z,11.38
2022-12-26T07:21:16.733Z,14.23
2022-12-26T07:24:02.252Z,11.45
2022-12-26T07:26:48.240Z,8.25
2022-12-26T07:29:34.064Z,7.50
2022-12-26T07:32:19.399Z,11.05
2022-12-26T07:35:05.479Z,7.50
2022-12-26T07:37:51.044Z,13.98
2022-12-26T07:40:39.181Z,8.00
2022-12-26T07:43:25.526Z,13.93
2022-12-26T07:46:11.148Z,13.85
2022-12-26T07:48:59.393Z,12.55
2022-12-26T07:51:47.844Z,14.77
2022-12-26T07:54:33.393Z,13.38
2022-12-26T08:00:23.890Z,17.23
2022-12-26T08:03:12.581Z,11.18
2022-12-26T08:05:59.367Z,15.25
2022-12-26T08:08:50.854Z,11.95
2022-12-26T08:11:36.727Z,16.15
2022-12-26T08:14:22.561Z,17.45
2022-12-26T08:17:10.954Z,11.77
2022-12-26T08:19:56.354Z,10.77
2022-12-26T08:22:41.754Z,15.82
2022-12-26T08:25:27.791Z,18.13
2022-12-26T08:28:13.436Z,16.63
2022-12-26T08:30:59.267Z,15.30
2022-12-26T08:33:44.949Z,16.23
2022-12-26T08:36:30.373Z,16.17
2022-12-26T08:39:18.446Z,15.10
2022-12-26T08:42:06.586Z,15.55
2022-12-26T08:44:52.342Z,19.30
2022-12-26T08:47:37.628Z,11.23
2022-12-26T08:50:23.223Z,22.33
2022-12-26T08:53:09.270Z,12.18
2022-12-26T08:55:56.490Z,12.60
2022-12-26T08:58:42.386Z,15.25
2022-12-26T09:01:30.626Z,18.08
2022-12-26T09:04:16.354Z,12.65
2022-12-26T09:07:01.694Z,17.10
2022-12-26T09:09:48.705Z,17.95
2022-12-26T09:12:34.093Z,18.38
2022-12-26T09:15:20.207Z,24.10
2022-12-26T09:18:05.664Z,11.75
2022-12-26T09:20:50.961Z,21.73
2022-12-26T09:23:37.708Z,35.22
2022-12-26T09:26:22.911Z,33.85
2022-12-26T09:29:11.041Z,27.15
2022-12-26T09:31:56.572Z,23.55
2022-12-26T09:34:44.740Z,19.85
2022-12-26T09:37:30.181Z,26.50
2022-12-26T09:40:27.132Z,19.13
2022-12-26T09:43:32.048Z,14.93
2022-12-26T09:46:23.297Z,18.92
2022-12-26T09:49:41.694Z,20.50
2022-12-26T09:52:40.249Z,15.68
2022-12-26T09:55:44.414Z,14.70
2022-12-26T09:58:34.090Z,14.30
2022-12-26T10:01:23.705Z,16.85
2022-12-26T10:04:28.574Z,18.45
2022-12-26T10:07:30.633Z,19.88
2022-12-26T10:10:51.328Z,25.52
2022-12-26T10:14:03.580Z,14.27
2022-12-26T10:17:01.460Z,17.55
2022-12-26T10:20:29.444Z,22.80
2022-12-26T10:23:31.512Z,21.08
2022-12-26T10:26:39.608Z,18.35
2022-12-26T10:29:38.212Z,15.60
2022-12-26T10:32:33.530Z,17.65
2022-12-26T10:38:44.566Z,10.27
2022-12-26T10:41:41.893Z,19.88
2022-12-26T10:44:28.897Z,14.38
2022-12-26T10:47:32.842Z,12.73
2022-12-26T10:50:26.980Z,12.85
2022-12-26T10:53:14.384Z,7.50
2022-12-26T10:56:01.935Z,18.67
2022-12-26T10:58:59.101Z,14.30
2022-12-26T11:01:47.773Z,13.27
2022-12-26T11:07:49.622Z,10.68
2022-12-26T11:10:37.708Z,14.70
2022-12-26T11:13:23.463Z,17.02
2022-12-26T11:16:10.639Z,9.27
2022-12-26T11:18:57.374Z,13.18
2022-12-26T11:21:43.074Z,10.95
2022-12-26T11:24:28.592Z,10.10
2022-12-26T11:27:20.466Z,12.23
2022-12-26T11:30:14.986Z,16.73
2022-12-26T11:33:15.218Z,11.50
2022-12-26T11:36:15.285Z,14.18
2022-12-26T11:39:22.058Z,10.75
2022-12-26T11:42:15.137Z,9.38
2022-12-26T11:45:09.932Z,10.80
2022-12-26T11:47:58.031Z,9.43
2022-12-26T11:50:46.452Z,8.65
2022-12-26T11:53:34.566Z,9.23
2022-12-26T11:56:28.673Z,8.10
2022-12-26T11:59:23.801Z,12.02
2022-12-26T12:02:32.492Z,8.07
2022-12-26T12:05:56.185Z,9.88
2022-12-26T12:09:05.948Z,5.72
2022-12-26T12:12:12.581Z,9.02
2022-12-26T12:15:12.833Z,4.68
2022-12-26T12:18:19.392Z,10.73
2022-12-26T12:21:32.304Z,6.80
2022-12-26T12:24:32.457Z,6.45
2022-12-26T12:27:50.320Z,8.73
2022-12-26T12:30:47.049Z,6.70
2022-12-26T12:34:00.869Z,5.15
2022-12-26T12:37:08.955Z,6.10
2022-12-26T12:40:16.058Z,8.27
2022-12-26T12:43:42.770Z,6.70
2022-12-26T12:46:59.016Z,8.25
2022-12-26T12:50:09.625Z,7.32
2022-12-26T12:53:18.303Z,7.55
2022-12-26T12:56:37.021Z,5.85
2022-12-26T12:59:52.833Z,9.23
2022-12-26T13:02:41.683Z,9.48
2022-12-26T13:05:33.340Z,7.68
2022-12-26T13:08:30.792Z,3.67
2022-12-26T13:11:42.400Z,3.95
2022-12-26T13:14:34.919Z,8.57
2022-12-26T13:17:33.053Z,10.23
2022-12-26T13:20:25.715Z,5.25
2022-12-26T13:23:40.540Z,6.15
2022-12-26T13:26:39.100Z,7.18
2022-12-26T13:29:25.321Z,8.43
2022-12-26T13:32:22.115Z,5.97
2022-12-26T13:35:46.253Z,5.65
2022-12-26T13:38:56.481Z,5.97
2022-12-26T13:42:34.401Z,8.98
2022-12-26T13:45:35.726Z,8.25
2022-12-26T13:48:29.664Z,11.13
2022-12-26T13:51:53.630Z,6.55
2022-12-26T13:54:48.376Z,11.23
2022-12-26T13:57:42.718Z,12.60
2022-12-26T14:00:48.523Z,8.80
2022-12-26T14:06:41.829Z,9.00
2022-12-26T14:09:44.079Z,6.28
2022-12-26T14:12:47.553Z,6.38
2022-12-26T14:15:57.068Z,9.25
2022-12-26T14:19:04.765Z,7.03
2022-12-26T14:22:18.495Z,8.57
2022-12-26T14:25:23.915Z,11.00
2022-12-26T14:28:50.383Z,5.20
2022-12-26T14:35:05.988Z,8.23
2022-12-26T14:41:36.759Z,9.23
2022-12-26T14:44:22.447Z,7.78
2022-12-26T14:47:10.230Z,10.90
2022-12-26T14:49:55.737Z,13.52
2022-12-26T14:52:43.828Z,13.00
2022-12-26T14:55:47.880Z,11.57
2022-12-26T14:58:43.870Z,11.32
2022-12-26T15:01:32.624Z,11.40
2022-12-26T15:04:36.562Z,10.60
2022-12-26T15:08:09.758Z,8.07
2022-12-26T15:11:22.166Z,16.35
2022-12-26T15:14:41.446Z,15.55
2022-12-26T15:17:49.280Z,8.35
2022-12-26T15:20:44.634Z,11.27
2022-12-26T15:23:53.392Z,14.57
2022-12-26T15:26:57.060Z,12.50
2022-12-26T15:30:06.509Z,20.15
2022-12-26T15:33:11.592Z,9.15
2022-12-26T15:36:15.343Z,13.35
2022-12-26T15:39:21.640Z,15.15
2022-12-26T15:42:44.091Z,13.07
2022-12-26T15:45:48.089Z,15.73
2022-12-26T15:49:01.416Z,11.88
2022-12-26T15:51:59.388Z,15.45
2022-12-26T15:55:17.765Z,14.02
2022-12-26T15:58:20.032Z,12.75
2022-12-26T16:01:05.749Z,13.38
2022-12-26T16:03:55.738Z,20.02
2022-12-26T16:06:47.245Z,16.50
2022-12-26T16:09:44.339Z,17.95
2022-12-26T16:12:31.137Z,17.50
2022-12-26T16:15:17.783Z,16.80
2022-12-26T16:18:14.523Z,17.60
2022-12-26T16:21:26.085Z,15.32
2022-12-26T16:24:13.590Z,19.75
2022-12-26T16:27:02.795Z,21.30
2022-12-26T16:29:58.307Z,21.02
2022-12-26T16:32:44.445Z,20.48
2022-12-26T16:35:34.935Z,12.30
2022-12-26T16:38:30.260Z,20.45
2022-12-26T16:41:27.004Z,23.23
2022-12-26T16:44:35.389Z,15.90
2022-12-26T16:47:21.221Z,18.80
2022-12-26T16:50:14.835Z,14.02
2022-12-26T16:53:15.711Z,14.15
2022-12-26T16:56:26.874Z,16.17
2022-12-26T16:59:17.505Z,16.80
2022-12-26T17:02:04.233Z,16.63
2022-12-26T17:04:58.215Z,12.40
2022-12-26T17:07:46.495Z,14.32
2022-12-26T17:10:37.391Z,13.60
2022-12-26T17:13:26.386Z,16.55
2022-12-26T17:16:14.367Z,14.75
2022-12-26T17:19:19.037Z,12.10
2022-12-26T17:22:28.289Z,18.33
2022-12-26T17:25:33.490Z,12.57
2022-12-26T17:28:19.847Z,11.65
2022-12-26T17:31:17.260Z,15.00
2022-12-26T17:34:13.314Z,15.32
2022-12-26T17:37:20.552Z,6.75
2022-12-26T17:40:14.658Z,16.13
2022-12-26T17:43:14.494Z,9.00
2022-12-26T17:46:01.131Z,14.05
2022-12-26T17:48:46.850Z,13.48
2022-12-26T17:51:32.044Z,11.50
2022-12-26T17:54:17.767Z,16.42
2022-12-26T17:57:03.257Z,8.63
2022-12-26T17:59:50.428Z,12.20
2022-12-26T18:02:41.649Z,14.70
2022-12-26T18:05:27.375Z,9.45
2022-12-26T18:08:41.872Z,11.90
2022-12-26T18:11:28.334Z,12.95
2022-12-26T18:14:14.484Z,15.73
2022-12-26T18:17:01.868Z,6.93
2022-12-26T18:19:49.294Z,18.10
2022-12-26T18:22:34.704Z,6.60
2022-12-26T18:25:22.952Z,9.73
2022-12-26T18:28:16.848Z,16.50
2022-12-26T18:31:02.450Z,11.40
2022-12-26T18:33:47.698Z,19.63
2022-12-26T18:36:36.761Z,14.93
2022-12-26T18:39:22.002Z,10.88
2022-12-26T18:42:14.867Z,17.63
2022-12-26T18:45:00.436Z,14.75
2022-12-26T18:47:45.555Z,14.23
2022-12-26T18:50:32.423Z,20.33
2022-12-26T18:53:18.719Z,18.30
2022-12-26T18:56:05.638Z,19.27
2022-12-26T18:58:57.376Z,24.45
2022-12-26T19:01:43.704Z,21.25
2022-12-26T19:04:29.284Z,27.80
2022-12-26T19:07:17.053Z,37.08
2022-12-26T19:10:02.777Z,23.95
2022-12-26T19:12:48.649Z,15.25
2022-12-26T19:15:35.508Z,21.90
2022-12-26T19:18:20.752Z,18.92
2022-12-26T19:21:14.429Z,12.13
2022-12-26T19:23:59.728Z,9.32
2022-12-26T19:26:45.938Z,16.60
2022-12-26T19:29:32.927Z,22.60
2022-12-26T19:32:21.450Z,15.48
2022-12-26T19:35:07.695Z,14.38
2022-12-26T19:37:58.361Z,10.57
2022-12-26T19:40:43.912Z,15.27
2022-12-26T19:43:29.623Z,16.33
2022-12-26T19:46:15.922Z,18.42
2022-12-26T19:49:01.098Z,14.68
2022-12-26T19:51:46.709Z,13.20
2022-12-26T19:54:32.199Z,16.92
2022-12-26T19:57:17.792Z,12.90
2022-12-26T20:00:04.917Z,16.52
2022-12-26T20:02:57.432Z,18.45
2022-12-26T20:05:42.947Z,18.83
2022-12-26T20:08:29.195Z,15.75
2022-12-26T20:11:27.295Z,11.05
2022-12-26T20:14:15.617Z,19.67
2022-12-26T20:17:06.218Z,17.02
2022-12-26T20:19:53.073Z,18.77
2022-12-26T20:22:40.819Z,11.38
2022-12-26T20:25:27.841Z,19.45
2022-12-26T20:28:13.401Z,11.07
2022-12-26T20:31:11.618Z,11.80
2022-12-26T20:33:59.173Z,19.08
2022-12-26T20:36:44.677Z,21.02
2022-12-26T20:39:33.369Z,14.45
2022-12-26T20:42:21.870Z,23.30
2022-12-26T20:45:08.059Z,20.52
2022-12-26T20:47:53.664Z,24.27
2022-12-26T20:50:55.200Z,17.08
2022-12-26T20:53:41.491Z,27.33
2022-12-26T20:56:27.257Z,20.25
2022-12-26T20:59:12.788Z,15.80
2022-12-26T21:01:58.182Z,16.17
2022-12-26T21:04:46.410Z,17.75
2022-12-26T21:07:33.236Z,16.98
2022-12-26T21:10:18.603Z,19.13
2022-12-26T21:13:04.082Z,27.73
2022-12-26T21:15:52.412Z,14.25
2022-12-26T21:18:38.857Z,14.15
2022-12-26T21:21:27.449Z,14.50
2022-12-26T21:24:28.804Z,8.27
2022-12-26T21:27:16.964Z,12.30
2022-12-26T21:30:02.223Z,12.10
2022-12-26T21:32:47.512Z,10.85
2022-12-26T21:35:39.647Z,20.50
2022-12-26T21:38:28.885Z,18.27
2022-12-26T21:41:14.609Z,17.70
2022-12-26T21:44:00.363Z,12.73
2022-12-26T21:46:45.754Z,12.93
2022-12-26T21:49:40.488Z,17.10
2022-12-26T21:52:26.430Z,11.77
2022-12-26T21:55:26.968Z,16.75
2022-12-26T21:58:12.362Z,23.05
2022-12-26T22:01:18.977Z,16.45
2022-12-26T22:04:19.101Z,11.25
2022-12-26T22:07:04.412Z,16.08
2022-12-26T22:09:50.038Z,18.25
2022-12-26T22:12:54.132Z,22.90
2022-12-26T22:16:02.633Z,20.38
2022-12-26T22:18:48.084Z,17.00
2022-12-26T22:21:33.490Z,16.98
2022-12-26T22:24:18.876Z,25.45
2022-12-26T22:27:04.000Z,18.95
2022-12-26T22:29:49.519Z,22.10
2022-12-26T22:32:35.147Z,19.40
2022-12-26T22:35:21.429Z,15.35
2022-12-26T22:38:06.668Z,16.73
2022-12-26T22:40:57.895Z,14.82
2022-12-26T22:43:43.473Z,14.18
2022-12-26T22:46:29.200Z,18.05
2022-12-26T22:49:14.511Z,21.80
2022-12-26T22:52:02.921Z,20.10
2022-12-26T22:54:48.213Z,15.82
2022-12-26T22:57:33.816Z,15.77
2022-12-26T23:00:19.610Z,24.90
2022-12-26T23:03:05.340Z,23.08
2022-12-26T23:05:51.051Z,24.58
2022-12-26T23:08:41.472Z,11.25
2022-12-26T23:11:34.332Z,23.17
2022-12-26T23:14:20.990Z,16.20
2022-12-26T23:17:10.627Z,15.70
2022-12-26T23:20:14.640Z,19.75
2022-12-26T23:23:00.158Z,21.63
2022-12-26T23:25:47.990Z,23.63
2022-12-26T23:28:51.964Z,20.75
2022-12-26T23:31:37.608Z,21.30
2022-12-26T23:34:29.177Z,17.73
2022-12-26T23:37:14.451Z,18.85
2022-12-26T23:40:00.052Z,15.82
2022-12-26T23:42:46.021Z,24.75
2022-12-26T23:45:31.628Z,14.73
2022-12-26T23:48:17.375Z,16.67
2022-12-26T23:51:05.027Z,21.83
2022-12-26T23:53:50.587Z,24.10
2022-12-26T23:56:36.433Z,17.17
2022-12-26T23:59:21.922Z,17.33
